sensor_id;sensor_type;location;lat;lon;timestamp;temperature;humidity
10472;DHT22;5283;48.876;8.962;2023-12-20T00:01:01;5.10;99.90
10472;DHT22;5283;48.876;8.962;2023-12-20T00:03:28;5.10;99.90
10472;DHT22;5283;48.876;8.962;2023-12-20T00:05:59;5.00;99.90
10472;DHT22;5283;48.876;8.962;2023-12-20T00:08:25;5.10;99.90
10472;DHT22;5283;48.876;8.962;2023-12-20T00:10:52;5.10;99.90
10472;DHT22;5283;48.876;8.962;2023-12-20T00:13:19;5.10;99.90
10472;DHT22;5283;48.876;8.962;2023-12-20T00:15:46;5.00;99.90
10472;DHT22;5283;48.876;8.962;2023-12-20T00:18:12;5.00;99.90
10472;DHT22;5283;48.876;8.962;2023-12-20T00:20:39;5.00;99.90
10472;DHT22;5283;48.876;8.962;2023-12-20T00:23:06;5.00;99.90
10472;DHT22;5283;48.876;8.962;2023-12-20T00:25:34;5.00;99.90
10472;DHT22;5283;48.876;8.962;2023-12-20T00:28:01;5.00;99.90
10472;DHT22;5283;48.876;8.962;2023-12-20T00:30:28;5.00;99.90
10472;DHT22;5283;48.876;8.962;2023-12-20T00:32:56;5.00;99.90
10472;DHT22;5283;48.876;8.962;2023-12-20T00:35:23;4.90;99.90
10472;DHT22;5283;48.876;8.962;2023-12-20T00:37:49;4.90;99.90
10472;DHT22;5283;48.876;8.962;2023-12-20T00:40:16;4.90;99.90
10472;DHT22;5283;48.876;8.962;2023-12-20T00:42:43;4.90;99.90
10472;DHT22;5283;48.876;8.962;2023-12-20T00:45:10;4.90;99.90
10472;DHT22;5283;48.876;8.962;2023-12-20T00:47:37;4.90;99.90
10472;DHT22;5283;48.876;8.962;2023-12-20T00:50:04;4.80;99.90
10472;DHT22;5283;48.876;8.962;2023-12-20T00:52:30;4.80;99.90
10472;DHT22;5283;48.876;8.962;2023-12-20T00:54:57;4.80;99.90
10472;DHT22;5283;48.876;8.962;2023-12-20T00:57:24;4.80;99.90
10472;DHT22;5283;48.876;8.962;2023-12-20T00:59:52;4.80;99.90
10472;DHT22;5283;48.876;8.962;2023-12-20T01:02:18;4.80;99.90
10472;DHT22;5283;48.876;8.962;2023-12-20T01:04:45;4.80;99.90
10472;DHT22;5283;48.876;8.962;2023-12-20T01:07:12;4.80;99.90
10472;DHT22;5283;48.876;8.962;2023-12-20T01:09:39;4.70;99.90
10472;DHT22;5283;48.876;8.962;2023-12-20T01:12:05;4.70;99.90
10472;DHT22;5283;48.876;8.962;2023-12-20T01:14:32;4.70;99.90
10472;DHT22;5283;48.876;8.962;2023-12-20T01:16:59;4.70;99.90
10472;DHT22;5283;48.876;8.962;2023-12-20T01:19:26;4.70;99.90
10472;DHT22;5283;48.876;8.962;2023-12-20T01:21:54;4.70;99.90
10472;DHT22;5283;48.876;8.962;2023-12-20T01:24:21;4.70;99.90
10472;DHT22;5283;48.876;8.962;2023-12-20T01:26:48;4.80;99.90
10472;DHT22;5283;48.876;8.962;2023-12-20T01:29:15;4.70;99.90
10472;DHT22;5283;48.876;8.962;2023-12-20T01:31:42;4.70;99.90
10472;DHT22;5283;48.876;8.962;2023-12-20T01:34:09;4.70;99.90
10472;DHT22;5283;48.876;8.962;2023-12-20T01:36:35;4.70;99.90
10472;DHT22;5283;48.876;8.962;2023-12-20T01:39:02;4.80;99.90
10472;DHT22;5283;48.876;8.962;2023-12-20T01:41:31;4.80;99.90
10472;DHT22;5283;48.876;8.962;2023-12-20T01:43:58;4.80;99.90
10472;DHT22;5283;48.876;8.962;2023-12-20T01:46:25;4.80;99.90
10472;DHT22;5283;48.876;8.962;2023-12-20T01:48:52;4.80;99.90
10472;DHT22;5283;48.876;8.962;2023-12-20T01:51:19;4.80;99.90
10472;DHT22;5283;48.876;8.962;2023-12-20T01:53:47;5.10;99.90
10472;DHT22;5283;48.876;8.962;2023-12-20T01:56:15;5.50;99.90
10472;DHT22;5283;48.876;8.962;2023-12-20T01:58:47;5.80;99.90
10472;DHT22;5283;48.876;8.962;2023-12-20T02:01:14;5.90;99.90
10472;DHT22;5283;48.876;8.962;2023-12-20T02:03:41;5.80;99.90
10472;DHT22;5283;48.876;8.962;2023-12-20T02:06:09;5.90;99.90
10472;DHT22;5283;48.876;8.962;2023-12-20T02:08:36;6.00;99.90
10472;DHT22;5283;48.876;8.962;2023-12-20T02:11:03;6.00;99.90
10472;DHT22;5283;48.876;8.962;2023-12-20T02:13:30;6.10;99.90
10472;DHT22;5283;48.876;8.962;2023-12-20T02:15:57;6.10;99.90
10472;DHT22;5283;48.876;8.962;2023-12-20T02:18:24;6.20;99.90
10472;DHT22;5283;48.876;8.962;2023-12-20T02:20:51;6.20;99.90
10472;DHT22;5283;48.876;8.962;2023-12-20T02:23:18;6.20;99.90
10472;DHT22;5283;48.876;8.962;2023-12-20T02:25:44;6.10;99.90
10472;DHT22;5283;48.876;8.962;2023-12-20T02:28:11;6.10;99.90
10472;DHT22;5283;48.876;8.962;2023-12-20T02:30:38;6.10;99.90
10472;DHT22;5283;48.876;8.962;2023-12-20T02:33:08;6.10;99.90
10472;DHT22;5283;48.876;8.962;2023-12-20T02:35:37;6.00;99.90
10472;DHT22;5283;48.876;8.962;2023-12-20T02:38:04;6.00;99.90
10472;DHT22;5283;48.876;8.962;2023-12-20T02:40:31;6.10;99.90
10472;DHT22;5283;48.876;8.962;2023-12-20T02:42:58;6.10;99.90
10472;DHT22;5283;48.876;8.962;2023-12-20T02:45:26;6.00;99.90
10472;DHT22;5283;48.876;8.962;2023-12-20T02:47:53;6.00;99.90
10472;DHT22;5283;48.876;8.962;2023-12-20T02:50:19;6.00;99.90
10472;DHT22;5283;48.876;8.962;2023-12-20T02:52:46;6.00;99.90
10472;DHT22;5283;48.876;8.962;2023-12-20T02:55:13;5.90;99.90
10472;DHT22;5283;48.876;8.962;2023-12-20T02:57:40;5.90;99.90
10472;DHT22;5283;48.876;8.962;2023-12-20T03:00:09;5.80;99.90
10472;DHT22;5283;48.876;8.962;2023-12-20T03:02:36;5.80;99.90
10472;DHT22;5283;48.876;8.962;2023-12-20T03:05:03;5.70;99.90
10472;DHT22;5283;48.876;8.962;2023-12-20T03:07:30;5.70;99.90
10472;DHT22;5283;48.876;8.962;2023-12-20T03:09:56;5.70;99.90
10472;DHT22;5283;48.876;8.962;2023-12-20T03:12:25;5.70;99.90
10472;DHT22;5283;48.876;8.962;2023-12-20T03:14:51;5.60;99.90
10472;DHT22;5283;48.876;8.962;2023-12-20T03:17:18;5.60;99.90
10472;DHT22;5283;48.876;8.962;2023-12-20T03:19:46;5.60;99.90
10472;DHT22;5283;48.876;8.962;2023-12-20T03:22:12;5.60;99.90
10472;DHT22;5283;48.876;8.962;2023-12-20T03:24:39;5.60;99.90
10472;DHT22;5283;48.876;8.962;2023-12-20T03:27:06;5.70;99.90
10472;DHT22;5283;48.876;8.962;2023-12-20T03:29:32;5.60;99.90
10472;DHT22;5283;48.876;8.962;2023-12-20T03:31:59;5.70;99.90
10472;DHT22;5283;48.876;8.962;2023-12-20T03:34:26;5.70;99.90
10472;DHT22;5283;48.876;8.962;2023-12-20T03:36:53;5.70;99.90
10472;DHT22;5283;48.876;8.962;2023-12-20T03:39:20;5.60;99.90
10472;DHT22;5283;48.876;8.962;2023-12-20T03:41:46;5.60;99.90
10472;DHT22;5283;48.876;8.962;2023-12-20T03:44:13;5.60;99.90
10472;DHT22;5283;48.876;8.962;2023-12-20T03:46:40;5.60;99.90
10472;DHT22;5283;48.876;8.962;2023-12-20T03:49:06;5.50;99.90
10472;DHT22;5283;48.876;8.962;2023-12-20T03:51:33;5.50;99.90
10472;DHT22;5283;48.876;8.962;2023-12-20T03:54:00;5.50;99.90
10472;DHT22;5283;48.876;8.962;2023-12-20T03:56:26;5.60;99.90
10472;DHT22;5283;48.876;8.962;2023-12-20T03:58:53;5.60;99.90
10472;DHT22;5283;48.876;8.962;2023-12-20T04:01:20;5.50;99.90
10472;DHT22;5283;48.876;8.962;2023-12-20T04:03:46;5.50;99.90
10472;DHT22;5283;48.876;8.962;2023-12-20T04:06:17;5.50;99.90
10472;DHT22;5283;48.876;8.962;2023-12-20T04:08:44;5.50;99.90
10472;DHT22;5283;48.876;8.962;2023-12-20T04:11:11;5.50;99.90
10472;DHT22;5283;48.876;8.962;2023-12-20T04:13:38;5.40;99.90
10472;DHT22;5283;48.876;8.962;2023-12-20T04:16:05;5.40;99.90
10472;DHT22;5283;48.876;8.962;2023-12-20T04:18:32;5.40;99.90
10472;DHT22;5283;48.876;8.962;2023-12-20T04:20:59;5.30;99.90
10472;DHT22;5283;48.876;8.962;2023-12-20T04:23:25;5.30;99.90
10472;DHT22;5283;48.876;8.962;2023-12-20T04:25:53;5.40;99.90
10472;DHT22;5283;48.876;8.962;2023-12-20T04:28:19;5.30;99.90
10472;DHT22;5283;48.876;8.962;2023-12-20T04:30:46;5.30;99.90
10472;DHT22;5283;48.876;8.962;2023-12-20T04:33:13;5.40;99.90
10472;DHT22;5283;48.876;8.962;2023-12-20T04:35:40;5.40;99.90
10472;DHT22;5283;48.876;8.962;2023-12-20T04:38:07;5.40;99.90
10472;DHT22;5283;48.876;8.962;2023-12-20T04:40:34;5.40;99.90
10472;DHT22;5283;48.876;8.962;2023-12-20T04:43:01;5.50;99.90
10472;DHT22;5283;48.876;8.962;2023-12-20T04:45:27;5.50;99.90
10472;DHT22;5283;48.876;8.962;2023-12-20T04:47:55;5.50;99.90
10472;DHT22;5283;48.876;8.962;2023-12-20T04:50:21;5.50;99.90
10472;DHT22;5283;48.876;8.962;2023-12-20T04:52:48;5.50;99.90
10472;DHT22;5283;48.876;8.962;2023-12-20T04:55:15;5.50;99.90
10472;DHT22;5283;48.876;8.962;2023-12-20T04:57:42;5.50;99.90
10472;DHT22;5283;48.876;8.962;2023-12-20T05:00:10;5.50;99.90
10472;DHT22;5283;48.876;8.962;2023-12-20T05:02:37;5.60;99.90
10472;DHT22;5283;48.876;8.962;2023-12-20T05:05:04;5.60;99.90
10472;DHT22;5283;48.876;8.962;2023-12-20T05:07:31;5.60;99.90
10472;DHT22;5283;48.876;8.962;2023-12-20T05:09:58;5.60;99.90
10472;DHT22;5283;48.876;8.962;2023-12-20T05:12:25;5.70;99.90
10472;DHT22;5283;48.876;8.962;2023-12-20T05:14:52;5.70;99.90
10472;DHT22;5283;48.876;8.962;2023-12-20T05:17:19;5.70;99.90
10472;DHT22;5283;48.876;8.962;2023-12-20T05:19:47;5.70;99.90
10472;DHT22;5283;48.876;8.962;2023-12-20T05:22:14;5.70;99.90
10472;DHT22;5283;48.876;8.962;2023-12-20T05:24:40;5.70;99.90
10472;DHT22;5283;48.876;8.962;2023-12-20T05:27:07;5.70;99.90
10472;DHT22;5283;48.876;8.962;2023-12-20T05:29:34;5.70;99.90
10472;DHT22;5283;48.876;8.962;2023-12-20T05:32:00;5.70;99.90
10472;DHT22;5283;48.876;8.962;2023-12-20T05:34:27;5.70;99.90
10472;DHT22;5283;48.876;8.962;2023-12-20T05:36:54;5.70;99.90
10472;DHT22;5283;48.876;8.962;2023-12-20T05:39:20;5.70;99.90
10472;DHT22;5283;48.876;8.962;2023-12-20T05:41:47;5.70;99.90
10472;DHT22;5283;48.876;8.962;2023-12-20T05:44:14;5.70;99.90
10472;DHT22;5283;48.876;8.962;2023-12-20T05:46:41;5.70;99.90
10472;DHT22;5283;48.876;8.962;2023-12-20T05:49:07;5.70;99.90
10472;DHT22;5283;48.876;8.962;2023-12-20T05:51:34;5.70;99.90
10472;DHT22;5283;48.876;8.962;2023-12-20T05:54:01;5.70;99.90
10472;DHT22;5283;48.876;8.962;2023-12-20T05:56:27;5.70;99.90
10472;DHT22;5283;48.876;8.962;2023-12-20T05:58:54;5.70;99.90
10472;DHT22;5283;48.876;8.962;2023-12-20T06:01:21;5.70;99.90
10472;DHT22;5283;48.876;8.962;2023-12-20T06:03:48;5.70;99.90
10472;DHT22;5283;48.876;8.962;2023-12-20T06:06:14;5.70;99.90
10472;DHT22;5283;48.876;8.962;2023-12-20T06:08:41;5.70;99.90
10472;DHT22;5283;48.876;8.962;2023-12-20T06:11:09;5.70;99.90
10472;DHT22;5283;48.876;8.962;2023-12-20T06:13:36;5.70;99.90
10472;DHT22;5283;48.876;8.962;2023-12-20T06:16:05;5.70;99.90
10472;DHT22;5283;48.876;8.962;2023-12-20T06:18:32;5.70;99.90
10472;DHT22;5283;48.876;8.962;2023-12-20T06:20:59;5.80;99.90
10472;DHT22;5283;48.876;8.962;2023-12-20T06:23:26;5.70;99.90
10472;DHT22;5283;48.876;8.962;2023-12-20T06:25:54;5.70;99.90
10472;DHT22;5283;48.876;8.962;2023-12-20T06:28:22;5.80;99.90
10472;DHT22;5283;48.876;8.962;2023-12-20T06:30:48;5.80;99.90
10472;DHT22;5283;48.876;8.962;2023-12-20T06:33:16;5.80;99.90
10472;DHT22;5283;48.876;8.962;2023-12-20T06:35:43;5.80;99.90
10472;DHT22;5283;48.876;8.962;2023-12-20T06:38:09;5.90;99.90
10472;DHT22;5283;48.876;8.962;2023-12-20T06:40:36;5.80;99.90
10472;DHT22;5283;48.876;8.962;2023-12-20T06:43:03;5.90;99.90
10472;DHT22;5283;48.876;8.962;2023-12-20T06:45:30;5.90;99.90
10472;DHT22;5283;48.876;8.962;2023-12-20T06:47:57;5.90;99.90
10472;DHT22;5283;48.876;8.962;2023-12-20T06:50:24;5.90;99.90
10472;DHT22;5283;48.876;8.962;2023-12-20T06:52:52;5.90;99.90
10472;DHT22;5283;48.876;8.962;2023-12-20T06:55:19;5.90;99.90
10472;DHT22;5283;48.876;8.962;2023-12-20T06:57:46;5.90;99.90
10472;DHT22;5283;48.876;8.962;2023-12-20T07:00:13;5.90;99.90
10472;DHT22;5283;48.876;8.962;2023-12-20T07:02:40;5.90;99.90
10472;DHT22;5283;48.876;8.962;2023-12-20T07:05:07;5.80;99.90
10472;DHT22;5283;48.876;8.962;2023-12-20T07:07:33;5.80;99.90
10472;DHT22;5283;48.876;8.962;2023-12-20T07:10:00;5.80;99.90
10472;DHT22;5283;48.876;8.962;2023-12-20T07:12:27;5.80;99.90
10472;DHT22;5283;48.876;8.962;2023-12-20T07:14:54;5.80;99.90
10472;DHT22;5283;48.876;8.962;2023-12-20T07:17:22;5.80;99.90
10472;DHT22;5283;48.876;8.962;2023-12-20T07:19:49;5.80;99.90
10472;DHT22;5283;48.876;8.962;2023-12-20T07:22:16;5.70;99.90
10472;DHT22;5283;48.876;8.962;2023-12-20T07:24:42;5.70;99.90
10472;DHT22;5283;48.876;8.962;2023-12-20T07:27:09;5.70;99.90
10472;DHT22;5283;48.876;8.962;2023-12-20T07:29:36;5.70;99.90
10472;DHT22;5283;48.876;8.962;2023-12-20T07:32:03;5.60;99.90
10472;DHT22;5283;48.876;8.962;2023-12-20T07:34:30;5.60;99.90
10472;DHT22;5283;48.876;8.962;2023-12-20T07:36:58;5.60;99.90
10472;DHT22;5283;48.876;8.962;2023-12-20T07:39:25;5.50;99.90
10472;DHT22;5283;48.876;8.962;2023-12-20T07:41:51;5.50;99.90
10472;DHT22;5283;48.876;8.962;2023-12-20T07:44:18;5.40;99.90
10472;DHT22;5283;48.876;8.962;2023-12-20T07:46:45;5.30;99.90
10472;DHT22;5283;48.876;8.962;2023-12-20T07:49:11;5.20;99.90
10472;DHT22;5283;48.876;8.962;2023-12-20T07:51:38;5.20;99.90
10472;DHT22;5283;48.876;8.962;2023-12-20T07:54:05;5.20;99.90
10472;DHT22;5283;48.876;8.962;2023-12-20T07:56:32;5.10;99.90
10472;DHT22;5283;48.876;8.962;2023-12-20T07:58:58;5.10;99.90
10472;DHT22;5283;48.876;8.962;2023-12-20T08:01:26;5.20;99.90
10472;DHT22;5283;48.876;8.962;2023-12-20T08:03:52;5.20;99.90
10472;DHT22;5283;48.876;8.962;2023-12-20T08:06:20;5.20;99.90
10472;DHT22;5283;48.876;8.962;2023-12-20T08:08:46;5.20;99.90
10472;DHT22;5283;48.876;8.962;2023-12-20T08:11:15;5.20;99.90
10472;DHT22;5283;48.876;8.962;2023-12-20T08:13:42;5.10;99.90
10472;DHT22;5283;48.876;8.962;2023-12-20T08:16:09;5.00;99.90
10472;DHT22;5283;48.876;8.962;2023-12-20T08:18:36;5.00;99.90
10472;DHT22;5283;48.876;8.962;2023-12-20T08:21:03;5.10;99.90
10472;DHT22;5283;48.876;8.962;2023-12-20T08:23:29;5.20;99.90
10472;DHT22;5283;48.876;8.962;2023-12-20T08:25:57;5.20;99.90
10472;DHT22;5283;48.876;8.962;2023-12-20T08:28:24;5.10;99.90
10472;DHT22;5283;48.876;8.962;2023-12-20T08:30:50;5.10;99.90
10472;DHT22;5283;48.876;8.962;2023-12-20T08:33:20;5.10;99.90
10472;DHT22;5283;48.876;8.962;2023-12-20T08:35:47;5.10;99.90
10472;DHT22;5283;48.876;8.962;2023-12-20T08:38:13;5.10;99.90
10472;DHT22;5283;48.876;8.962;2023-12-20T08:40:40;5.20;99.90
10472;DHT22;5283;48.876;8.962;2023-12-20T08:43:08;5.20;99.90
10472;DHT22;5283;48.876;8.962;2023-12-20T08:45:34;5.30;99.90
10472;DHT22;5283;48.876;8.962;2023-12-20T08:48:01;5.30;99.90
10472;DHT22;5283;48.876;8.962;2023-12-20T08:50:28;5.40;99.90
10472;DHT22;5283;48.876;8.962;2023-12-20T08:52:55;5.40;99.90
10472;DHT22;5283;48.876;8.962;2023-12-20T08:55:22;5.40;99.90
10472;DHT22;5283;48.876;8.962;2023-12-20T08:57:49;5.40;99.90
10472;DHT22;5283;48.876;8.962;2023-12-20T09:00:17;5.50;99.90
10472;DHT22;5283;48.876;8.962;2023-12-20T09:02:46;5.50;99.90
10472;DHT22;5283;48.876;8.962;2023-12-20T09:05:13;5.60;99.90
10472;DHT22;5283;48.876;8.962;2023-12-20T09:07:40;5.60;99.90
10472;DHT22;5283;48.876;8.962;2023-12-20T09:10:07;5.60;99.90
10472;DHT22;5283;48.876;8.962;2023-12-20T09:12:34;5.70;99.90
10472;DHT22;5283;48.876;8.962;2023-12-20T09:15:01;5.70;99.90
10472;DHT22;5283;48.876;8.962;2023-12-20T09:17:29;5.70;99.90
10472;DHT22;5283;48.876;8.962;2023-12-20T09:19:56;5.70;99.90
10472;DHT22;5283;48.876;8.962;2023-12-20T09:22:23;5.70;99.90
10472;DHT22;5283;48.876;8.962;2023-12-20T09:24:49;5.80;99.90
10472;DHT22;5283;48.876;8.962;2023-12-20T09:27:16;5.80;99.90
10472;DHT22;5283;48.876;8.962;2023-12-20T09:29:43;5.80;99.90
10472;DHT22;5283;48.876;8.962;2023-12-20T09:32:10;5.90;99.90
10472;DHT22;5283;48.876;8.962;2023-12-20T09:34:36;5.80;99.90
10472;DHT22;5283;48.876;8.962;2023-12-20T09:37:04;5.90;99.90
10472;DHT22;5283;48.876;8.962;2023-12-20T09:39:32;5.90;99.90
10472;DHT22;5283;48.876;8.962;2023-12-20T09:42:04;5.90;99.90
10472;DHT22;5283;48.876;8.962;2023-12-20T09:44:31;5.90;99.90
10472;DHT22;5283;48.876;8.962;2023-12-20T09:47:02;5.90;99.90
10472;DHT22;5283;48.876;8.962;2023-12-20T09:49:29;5.90;99.90
10472;DHT22;5283;48.876;8.962;2023-12-20T09:51:57;5.90;99.90
10472;DHT22;5283;48.876;8.962;2023-12-20T09:54:23;5.90;99.90
10472;DHT22;5283;48.876;8.962;2023-12-20T09:56:50;5.90;99.90
10472;DHT22;5283;48.876;8.962;2023-12-20T09:59:17;5.90;99.90
10472;DHT22;5283;48.876;8.962;2023-12-20T10:01:44;5.80;99.90
10472;DHT22;5283;48.876;8.962;2023-12-20T10:04:12;5.70;99.90
10472;DHT22;5283;48.876;8.962;2023-12-20T10:06:43;5.50;99.90
10472;DHT22;5283;48.876;8.962;2023-12-20T10:09:10;5.50;99.90
10472;DHT22;5283;48.876;8.962;2023-12-20T10:11:38;5.40;99.90
10472;DHT22;5283;48.876;8.962;2023-12-20T10:14:06;5.50;99.90
10472;DHT22;5283;48.876;8.962;2023-12-20T10:16:33;5.60;99.90
10472;DHT22;5283;48.876;8.962;2023-12-20T10:19:01;5.50;99.90
10472;DHT22;5283;48.876;8.962;2023-12-20T10:21:28;5.60;99.90
10472;DHT22;5283;48.876;8.962;2023-12-20T10:23:55;5.70;99.90
10472;DHT22;5283;48.876;8.962;2023-12-20T10:26:24;5.80;99.90
10472;DHT22;5283;48.876;8.962;2023-12-20T10:28:53;6.00;99.90
10472;DHT22;5283;48.876;8.962;2023-12-20T10:31:46;6.10;99.90
10472;DHT22;5283;48.876;8.962;2023-12-20T10:34:13;6.10;99.90
10472;DHT22;5283;48.876;8.962;2023-12-20T10:36:39;6.10;99.90
10472;DHT22;5283;48.876;8.962;2023-12-20T10:39:08;6.10;99.90
10472;DHT22;5283;48.876;8.962;2023-12-20T10:41:36;6.20;99.90
10472;DHT22;5283;48.876;8.962;2023-12-20T10:44:08;6.20;99.90
10472;DHT22;5283;48.876;8.962;2023-12-20T10:46:37;6.20;99.90
10472;DHT22;5283;48.876;8.962;2023-12-20T10:49:05;6.30;99.90
10472;DHT22;5283;48.876;8.962;2023-12-20T10:51:34;6.30;99.90
10472;DHT22;5283;48.876;8.962;2023-12-20T10:54:01;6.30;99.90
10472;DHT22;5283;48.876;8.962;2023-12-20T10:56:31;6.30;99.90
10472;DHT22;5283;48.876;8.962;2023-12-20T10:59:01;6.30;99.90
10472;DHT22;5283;48.876;8.962;2023-12-20T11:01:30;6.30;99.90
10472;DHT22;5283;48.876;8.962;2023-12-20T11:03:56;6.10;99.90
10472;DHT22;5283;48.876;8.962;2023-12-20T11:06:34;6.10;99.90
10472;DHT22;5283;48.876;8.962;2023-12-20T11:09:17;5.80;99.90
10472;DHT22;5283;48.876;8.962;2023-12-20T11:14:37;6.00;99.90
10472;DHT22;5283;48.876;8.962;2023-12-20T11:17:14;6.20;99.90
10472;DHT22;5283;48.876;8.962;2023-12-20T11:20:03;6.20;99.90
10472;DHT22;5283;48.876;8.962;2023-12-20T11:22:31;6.30;99.90
10472;DHT22;5283;48.876;8.962;2023-12-20T11:25:06;6.40;99.90
10472;DHT22;5283;48.876;8.962;2023-12-20T11:27:40;6.50;99.90
10472;DHT22;5283;48.876;8.962;2023-12-20T11:30:07;6.80;99.90
10472;DHT22;5283;48.876;8.962;2023-12-20T11:32:36;6.70;99.90
10472;DHT22;5283;48.876;8.962;2023-12-20T11:37:38;6.60;99.90
10472;DHT22;5283;48.876;8.962;2023-12-20T11:40:07;6.50;99.90
10472;DHT22;5283;48.876;8.962;2023-12-20T11:42:39;6.40;99.90
10472;DHT22;5283;48.876;8.962;2023-12-20T11:45:13;6.40;99.90
10472;DHT22;5283;48.876;8.962;2023-12-20T11:47:46;6.10;99.90
10472;DHT22;5283;48.876;8.962;2023-12-20T11:50:14;6.00;99.90
10472;DHT22;5283;48.876;8.962;2023-12-20T11:52:40;6.10;99.90
10472;DHT22;5283;48.876;8.962;2023-12-20T11:55:07;6.20;99.90
10472;DHT22;5283;48.876;8.962;2023-12-20T11:57:35;6.30;99.90
10472;DHT22;5283;48.876;8.962;2023-12-20T12:00:03;6.40;99.90
10472;DHT22;5283;48.876;8.962;2023-12-20T12:02:30;6.40;99.90
10472;DHT22;5283;48.876;8.962;2023-12-20T12:04:57;6.50;99.90
10472;DHT22;5283;48.876;8.962;2023-12-20T12:07:25;6.40;99.90
10472;DHT22;5283;48.876;8.962;2023-12-20T12:09:52;6.30;99.90
10472;DHT22;5283;48.876;8.962;2023-12-20T12:12:19;6.30;99.90
10472;DHT22;5283;48.876;8.962;2023-12-20T12:14:46;6.30;99.90
10472;DHT22;5283;48.876;8.962;2023-12-20T12:17:14;6.30;99.90
10472;DHT22;5283;48.876;8.962;2023-12-20T12:19:42;6.00;99.90
10472;DHT22;5283;48.876;8.962;2023-12-20T12:22:14;6.00;99.90
10472;DHT22;5283;48.876;8.962;2023-12-20T12:24:46;5.90;99.90
10472;DHT22;5283;48.876;8.962;2023-12-20T12:27:13;5.90;99.90
10472;DHT22;5283;48.876;8.962;2023-12-20T12:29:40;5.90;99.90
10472;DHT22;5283;48.876;8.962;2023-12-20T12:32:08;6.00;99.90
10472;DHT22;5283;48.876;8.962;2023-12-20T12:34:35;6.00;99.90
10472;DHT22;5283;48.876;8.962;2023-12-20T12:37:04;6.10;99.90
10472;DHT22;5283;48.876;8.962;2023-12-20T12:39:30;6.10;99.90
10472;DHT22;5283;48.876;8.962;2023-12-20T12:41:57;6.10;99.90
10472;DHT22;5283;48.876;8.962;2023-12-20T12:44:24;6.00;99.90
10472;DHT22;5283;48.876;8.962;2023-12-20T12:46:51;5.90;99.90
10472;DHT22;5283;48.876;8.962;2023-12-20T12:49:22;5.90;99.90
10472;DHT22;5283;48.876;8.962;2023-12-20T12:51:49;5.80;99.90
10472;DHT22;5283;48.876;8.962;2023-12-20T12:54:16;5.90;99.90
10472;DHT22;5283;48.876;8.962;2023-12-20T12:56:44;6.00;99.90
10472;DHT22;5283;48.876;8.962;2023-12-20T12:59:11;5.90;99.90
10472;DHT22;5283;48.876;8.962;2023-12-20T13:01:38;5.90;99.90
10472;DHT22;5283;48.876;8.962;2023-12-20T13:04:05;5.90;99.90
10472;DHT22;5283;48.876;8.962;2023-12-20T13:06:37;6.00;99.90
10472;DHT22;5283;48.876;8.962;2023-12-20T13:09:05;6.00;99.90
10472;DHT22;5283;48.876;8.962;2023-12-20T13:11:32;6.10;99.90
10472;DHT22;5283;48.876;8.962;2023-12-20T13:13:59;6.20;99.90
10472;DHT22;5283;48.876;8.962;2023-12-20T13:16:26;6.30;99.90
10472;DHT22;5283;48.876;8.962;2023-12-20T13:18:53;6.50;99.90
10472;DHT22;5283;48.876;8.962;2023-12-20T13:21:20;6.50;99.90
10472;DHT22;5283;48.876;8.962;2023-12-20T13:23:46;6.50;99.90
10472;DHT22;5283;48.876;8.962;2023-12-20T13:26:13;6.50;99.90
10472;DHT22;5283;48.876;8.962;2023-12-20T13:28:40;6.60;99.90
10472;DHT22;5283;48.876;8.962;2023-12-20T13:31:07;6.60;99.90
10472;DHT22;5283;48.876;8.962;2023-12-20T13:33:34;6.50;99.90
10472;DHT22;5283;48.876;8.962;2023-12-20T13:36:01;6.30;99.90
10472;DHT22;5283;48.876;8.962;2023-12-20T13:38:28;6.20;99.90
10472;DHT22;5283;48.876;8.962;2023-12-20T13:40:55;6.00;99.90
10472;DHT22;5283;48.876;8.962;2023-12-20T13:43:21;5.90;99.90
10472;DHT22;5283;48.876;8.962;2023-12-20T13:45:49;5.90;99.90
10472;DHT22;5283;48.876;8.962;2023-12-20T13:48:16;5.90;99.90
10472;DHT22;5283;48.876;8.962;2023-12-20T13:50:42;5.90;99.90
10472;DHT22;5283;48.876;8.962;2023-12-20T13:53:09;5.90;99.90
10472;DHT22;5283;48.876;8.962;2023-12-20T13:55:36;5.90;99.90
10472;DHT22;5283;48.876;8.962;2023-12-20T13:58:03;5.90;99.90
10472;DHT22;5283;48.876;8.962;2023-12-20T14:00:29;5.90;99.90
10472;DHT22;5283;48.876;8.962;2023-12-20T14:02:56;5.80;99.90
10472;DHT22;5283;48.876;8.962;2023-12-20T14:05:23;5.80;99.90
10472;DHT22;5283;48.876;8.962;2023-12-20T14:07:51;5.80;99.90
10472;DHT22;5283;48.876;8.962;2023-12-20T14:10:18;5.70;99.90
10472;DHT22;5283;48.876;8.962;2023-12-20T14:12:45;5.70;99.90
10472;DHT22;5283;48.876;8.962;2023-12-20T14:15:11;5.70;99.90
10472;DHT22;5283;48.876;8.962;2023-12-20T14:17:40;5.60;99.90
10472;DHT22;5283;48.876;8.962;2023-12-20T14:20:09;5.60;99.90
10472;DHT22;5283;48.876;8.962;2023-12-20T14:22:36;5.60;99.90
10472;DHT22;5283;48.876;8.962;2023-12-20T14:25:05;5.60;99.90
10472;DHT22;5283;48.876;8.962;2023-12-20T14:27:33;5.60;99.90
10472;DHT22;5283;48.876;8.962;2023-12-20T14:29:59;5.60;99.90
10472;DHT22;5283;48.876;8.962;2023-12-20T14:32:27;5.60;99.90
10472;DHT22;5283;48.876;8.962;2023-12-20T14:34:54;5.60;99.90
10472;DHT22;5283;48.876;8.962;2023-12-20T14:37:22;5.60;99.90
10472;DHT22;5283;48.876;8.962;2023-12-20T14:39:48;5.60;99.90
10472;DHT22;5283;48.876;8.962;2023-12-20T14:42:15;5.50;99.90
10472;DHT22;5283;48.876;8.962;2023-12-20T14:44:42;5.50;99.90
10472;DHT22;5283;48.876;8.962;2023-12-20T14:47:09;5.50;99.90
10472;DHT22;5283;48.876;8.962;2023-12-20T14:49:36;5.40;99.90
10472;DHT22;5283;48.876;8.962;2023-12-20T14:52:04;5.40;99.90
10472;DHT22;5283;48.876;8.962;2023-12-20T14:54:31;5.40;99.90
10472;DHT22;5283;48.876;8.962;2023-12-20T14:56:59;5.40;99.90
10472;DHT22;5283;48.876;8.962;2023-12-20T14:59:26;5.40;99.90
10472;DHT22;5283;48.876;8.962;2023-12-20T15:01:53;5.40;99.90
10472;DHT22;5283;48.876;8.962;2023-12-20T15:04:19;5.40;99.90
10472;DHT22;5283;48.876;8.962;2023-12-20T15:06:52;5.50;99.90
10472;DHT22;5283;48.876;8.962;2023-12-20T15:09:19;5.50;99.90
10472;DHT22;5283;48.876;8.962;2023-12-20T15:11:45;5.50;99.90
10472;DHT22;5283;48.876;8.962;2023-12-20T15:14:12;5.40;99.90
10472;DHT22;5283;48.876;8.962;2023-12-20T15:16:44;5.40;99.90
10472;DHT22;5283;48.876;8.962;2023-12-20T15:19:11;5.50;99.90
10472;DHT22;5283;48.876;8.962;2023-12-20T15:21:38;5.50;99.90
10472;DHT22;5283;48.876;8.962;2023-12-20T15:24:10;5.40;99.90
10472;DHT22;5283;48.876;8.962;2023-12-20T15:26:46;5.50;99.90
10472;DHT22;5283;48.876;8.962;2023-12-20T15:29:13;5.40;99.90
10472;DHT22;5283;48.876;8.962;2023-12-20T15:31:45;5.40;99.90
10472;DHT22;5283;48.876;8.962;2023-12-20T15:34:12;5.40;99.90
10472;DHT22;5283;48.876;8.962;2023-12-20T15:36:40;5.40;99.90
10472;DHT22;5283;48.876;8.962;2023-12-20T15:39:06;5.30;99.90
10472;DHT22;5283;48.876;8.962;2023-12-20T15:41:36;5.30;99.90
10472;DHT22;5283;48.876;8.962;2023-12-20T15:44:03;5.20;99.90
10472;DHT22;5283;48.876;8.962;2023-12-20T15:46:30;5.20;99.90
10472;DHT22;5283;48.876;8.962;2023-12-20T15:48:57;5.20;99.90
10472;DHT22;5283;48.876;8.962;2023-12-20T15:51:24;5.10;99.90
10472;DHT22;5283;48.876;8.962;2023-12-20T15:53:51;4.90;99.90
10472;DHT22;5283;48.876;8.962;2023-12-20T15:56:18;4.70;99.90
10472;DHT22;5283;48.876;8.962;2023-12-20T15:58:45;4.70;99.90
10472;DHT22;5283;48.876;8.962;2023-12-20T16:01:15;4.60;99.90
10472;DHT22;5283;48.876;8.962;2023-12-20T16:03:41;4.70;99.90
10472;DHT22;5283;48.876;8.962;2023-12-20T16:06:09;4.80;99.90
10472;DHT22;5283;48.876;8.962;2023-12-20T16:08:37;4.90;99.90